sensor_id;sensor_type;location;lat;lon;timestamp;temperature;humidity
2543;DHT22;1116;51.502;7.414;2023-02-02T00:02:18;6.40;99.90
2543;DHT22;1116;51.502;7.414;2023-02-02T00:04:52;6.40;99.90
2543;DHT22;1116;51.502;7.414;2023-02-02T00:07:26;6.40;99.90
2543;DHT22;1116;51.502;7.414;2023-02-02T00:09:57;6.40;99.90
2543;DHT22;1116;51.502;7.414;2023-02-02T00:12:29;6.50;99.90
2543;DHT22;1116;51.502;7.414;2023-02-02T00:15:00;6.50;99.90
2543;DHT22;1116;51.502;7.414;2023-02-02T00:17:31;6.50;99.90
2543;DHT22;1116;51.502;7.414;2023-02-02T00:20:08;6.50;99.90
2543;DHT22;1116;51.502;7.414;2023-02-02T00:22:42;6.50;99.90
2543;DHT22;1116;51.502;7.414;2023-02-02T00:25:13;6.50;99.90
2543;DHT22;1116;51.502;7.414;2023-02-02T00:27:44;6.50;99.90
2543;DHT22;1116;51.502;7.414;2023-02-02T00:30:17;6.50;99.90
2543;DHT22;1116;51.502;7.414;2023-02-02T00:32:55;6.50;99.90
2543;DHT22;1116;51.502;7.414;2023-02-02T00:35:29;6.50;99.90
2543;DHT22;1116;51.502;7.414;2023-02-02T00:38:06;6.60;99.90
2543;DHT22;1116;51.502;7.414;2023-02-02T00:40:50;6.60;99.90
2543;DHT22;1116;51.502;7.414;2023-02-02T00:43:24;7.00;99.90
2543;DHT22;1116;51.502;7.414;2023-02-02T00:46:05;6.50;99.90
2543;DHT22;1116;51.502;7.414;2023-02-02T00:48:36;6.50;99.90
2543;DHT22;1116;51.502;7.414;2023-02-02T00:51:12;6.50;99.90
2543;DHT22;1116;51.502;7.414;2023-02-02T00:53:48;6.50;99.90
2543;DHT22;1116;51.502;7.414;2023-02-02T00:56:22;6.50;99.90
2543;DHT22;1116;51.502;7.414;2023-02-02T00:58:56;6.50;99.90
2543;DHT22;1116;51.502;7.414;2023-02-02T01:01:30;6.40;99.90
2543;DHT22;1116;51.502;7.414;2023-02-02T01:04:07;6.60;99.90
2543;DHT22;1116;51.502;7.414;2023-02-02T01:06:40;6.60;99.90
2543;DHT22;1116;51.502;7.414;2023-02-02T01:09:14;6.40;99.90
2543;DHT22;1116;51.502;7.414;2023-02-02T01:11:45;6.60;99.90
2543;DHT22;1116;51.502;7.414;2023-02-02T01:14:15;6.70;99.90
2543;DHT22;1116;51.502;7.414;2023-02-02T01:16:47;6.70;99.90
2543;DHT22;1116;51.502;7.414;2023-02-02T01:19:18;6.70;99.90
2543;DHT22;1116;51.502;7.414;2023-02-02T01:21:48;6.60;99.90
2543;DHT22;1116;51.502;7.414;2023-02-02T01:24:23;6.60;99.90
2543;DHT22;1116;51.502;7.414;2023-02-02T01:26:54;6.60;99.90
2543;DHT22;1116;51.502;7.414;2023-02-02T01:29:28;6.50;99.90
2543;DHT22;1116;51.502;7.414;2023-02-02T01:31:59;6.50;99.90
2543;DHT22;1116;51.502;7.414;2023-02-02T01:34:29;6.60;99.90
2543;DHT22;1116;51.502;7.414;2023-02-02T01:37:01;6.60;99.90
2543;DHT22;1116;51.502;7.414;2023-02-02T01:39:34;6.60;99.90
2543;DHT22;1116;51.502;7.414;2023-02-02T01:42:11;6.70;99.90
2543;DHT22;1116;51.502;7.414;2023-02-02T01:47:51;6.70;99.90
2543;DHT22;1116;51.502;7.414;2023-02-02T01:50:31;6.70;99.90
2543;DHT22;1116;51.502;7.414;2023-02-02T01:53:03;6.70;99.90
2543;DHT22;1116;51.502;7.414;2023-02-02T01:55:40;6.80;99.90
2543;DHT22;1116;51.502;7.414;2023-02-02T01:58:14;6.80;99.90
2543;DHT22;1116;51.502;7.414;2023-02-02T02:00:46;6.90;99.90
2543;DHT22;1116;51.502;7.414;2023-02-02T02:03:25;6.90;99.90
2543;DHT22;1116;51.502;7.414;2023-02-02T02:06:01;6.90;99.90
2543;DHT22;1116;51.502;7.414;2023-02-02T02:08:38;6.90;99.90
2543;DHT22;1116;51.502;7.414;2023-02-02T02:11:13;6.90;99.90
2543;DHT22;1116;51.502;7.414;2023-02-02T02:13:44;7.00;99.90
2543;DHT22;1116;51.502;7.414;2023-02-02T02:16:34;7.00;99.90
2543;DHT22;1116;51.502;7.414;2023-02-02T02:19:17;7.00;99.90
2543;DHT22;1116;51.502;7.414;2023-02-02T02:22:00;7.00;99.90
2543;DHT22;1116;51.502;7.414;2023-02-02T02:25:15;7.00;99.90
2543;DHT22;1116;51.502;7.414;2023-02-02T02:31:49;7.00;99.90
2543;DHT22;1116;51.502;7.414;2023-02-02T02:34:36;6.90;99.90
2543;DHT22;1116;51.502;7.414;2023-02-02T02:37:15;7.10;99.90
2543;DHT22;1116;51.502;7.414;2023-02-02T02:39:50;7.10;99.90
2543;DHT22;1116;51.502;7.414;2023-02-02T02:42:26;7.10;99.90
2543;DHT22;1116;51.502;7.414;2023-02-02T02:45:00;7.20;99.90
2543;DHT22;1116;51.502;7.414;2023-02-02T02:47:35;7.20;99.90
2543;DHT22;1116;51.502;7.414;2023-02-02T02:50:07;7.30;99.90
2543;DHT22;1116;51.502;7.414;2023-02-02T02:52:39;7.30;99.90
2543;DHT22;1116;51.502;7.414;2023-02-02T02:55:11;7.30;99.90
2543;DHT22;1116;51.502;7.414;2023-02-02T02:57:55;7.30;99.90
2543;DHT22;1116;51.502;7.414;2023-02-02T03:00:45;7.30;99.90
2543;DHT22;1116;51.502;7.414;2023-02-02T03:03:28;7.30;99.90
2543;DHT22;1116;51.502;7.414;2023-02-02T03:06:10;7.30;99.90
2543;DHT22;1116;51.502;7.414;2023-02-02T03:08:45;7.30;99.90
2543;DHT22;1116;51.502;7.414;2023-02-02T03:11:17;7.30;99.90
2543;DHT22;1116;51.502;7.414;2023-02-02T03:13:52;7.30;99.90
2543;DHT22;1116;51.502;7.414;2023-02-02T03:16:23;7.30;99.90
2543;DHT22;1116;51.502;7.414;2023-02-02T03:18:59;7.40;99.90
2543;DHT22;1116;51.502;7.414;2023-02-02T03:21:31;7.40;99.90
2543;DHT22;1116;51.502;7.414;2023-02-02T03:24:03;7.40;99.90
2543;DHT22;1116;51.502;7.414;2023-02-02T03:26:34;7.40;99.90
2543;DHT22;1116;51.502;7.414;2023-02-02T03:29:05;7.40;99.90
2543;DHT22;1116;51.502;7.414;2023-02-02T03:31:36;7.30;99.90
2543;DHT22;1116;51.502;7.414;2023-02-02T03:34:11;7.40;99.90
2543;DHT22;1116;51.502;7.414;2023-02-02T03:36:43;7.30;99.90
2543;DHT22;1116;51.502;7.414;2023-02-02T03:39:16;7.30;99.90
2543;DHT22;1116;51.502;7.414;2023-02-02T03:41:47;7.30;99.90
2543;DHT22;1116;51.502;7.414;2023-02-02T03:44:18;7.30;99.90
2543;DHT22;1116;51.502;7.414;2023-02-02T03:46:52;7.30;99.90
2543;DHT22;1116;51.502;7.414;2023-02-02T03:49:26;7.30;99.90
2543;DHT22;1116;51.502;7.414;2023-02-02T03:51:58;7.20;99.90
2543;DHT22;1116;51.502;7.414;2023-02-02T03:54:31;7.40;99.90
2543;DHT22;1116;51.502;7.414;2023-02-02T03:57:02;7.20;99.90
2543;DHT22;1116;51.502;7.414;2023-02-02T03:59:32;7.20;99.90
2543;DHT22;1116;51.502;7.414;2023-02-02T04:02:03;7.10;99.90
2543;DHT22;1116;51.502;7.414;2023-02-02T04:04:36;7.10;99.90
2543;DHT22;1116;51.502;7.414;2023-02-02T04:07:07;7.10;99.90
2543;DHT22;1116;51.502;7.414;2023-02-02T04:09:38;7.30;99.90
2543;DHT22;1116;51.502;7.414;2023-02-02T04:12:12;7.10;99.90
2543;DHT22;1116;51.502;7.414;2023-02-02T04:14:43;7.20;99.90
2543;DHT22;1116;51.502;7.414;2023-02-02T04:17:14;7.20;99.90
2543;DHT22;1116;51.502;7.414;2023-02-02T04:19:47;7.20;99.90
2543;DHT22;1116;51.502;7.414;2023-02-02T04:22:20;7.20;99.90
2543;DHT22;1116;51.502;7.414;2023-02-02T04:24:50;7.60;99.90
2543;DHT22;1116;51.502;7.414;2023-02-02T04:27:21;7.20;99.90
2543;DHT22;1116;51.502;7.414;2023-02-02T04:29:52;7.20;99.90
2543;DHT22;1116;51.502;7.414;2023-02-02T04:32:23;7.20;99.90
2543;DHT22;1116;51.502;7.414;2023-02-02T04:34:56;7.20;99.90
2543;DHT22;1116;51.502;7.414;2023-02-02T04:37:30;7.20;99.90
2543;DHT22;1116;51.502;7.414;2023-02-02T04:40:01;7.20;99.90
2543;DHT22;1116;51.502;7.414;2023-02-02T04:42:32;7.20;99.90
2543;DHT22;1116;51.502;7.414;2023-02-02T04:45:03;7.30;99.90
2543;DHT22;1116;51.502;7.414;2023-02-02T04:47:34;7.30;99.90
2543;DHT22;1116;51.502;7.414;2023-02-02T04:50:09;7.30;99.90
2543;DHT22;1116;51.502;7.414;2023-02-02T04:52:40;7.30;99.90
2543;DHT22;1116;51.502;7.414;2023-02-02T04:55:11;7.30;99.90
2543;DHT22;1116;51.502;7.414;2023-02-02T04:57:42;7.30;99.90
2543;DHT22;1116;51.502;7.414;2023-02-02T05:00:14;7.40;99.90
2543;DHT22;1116;51.502;7.414;2023-02-02T05:02:45;7.40;99.90
2543;DHT22;1116;51.502;7.414;2023-02-02T05:05:21;7.40;99.90
2543;DHT22;1116;51.502;7.414;2023-02-02T05:07:54;7.40;99.90
2543;DHT22;1116;51.502;7.414;2023-02-02T05:10:27;7.40;99.90
2543;DHT22;1116;51.502;7.414;2023-02-02T05:12:57;7.40;99.90
2543;DHT22;1116;51.502;7.414;2023-02-02T05:15:28;7.40;99.90
2543;DHT22;1116;51.502;7.414;2023-02-02T05:17:59;7.40;99.90
2543;DHT22;1116;51.502;7.414;2023-02-02T05:23:29;7.40;99.90
2543;DHT22;1116;51.502;7.414;2023-02-02T05:26:02;7.40;99.90
2543;DHT22;1116;51.502;7.414;2023-02-02T05:28:33;7.40;99.90
2543;DHT22;1116;51.502;7.414;2023-02-02T05:31:05;7.50;99.90
2543;DHT22;1116;51.502;7.414;2023-02-02T05:33:36;7.50;99.90
2543;DHT22;1116;51.502;7.414;2023-02-02T05:36:07;7.50;99.90
2543;DHT22;1116;51.502;7.414;2023-02-02T05:38:41;7.90;99.90
2543;DHT22;1116;51.502;7.414;2023-02-02T05:41:12;7.50;99.90
2543;DHT22;1116;51.502;7.414;2023-02-02T05:43:43;7.60;99.90
2543;DHT22;1116;51.502;7.414;2023-02-02T05:46:13;7.60;99.90
2543;DHT22;1116;51.502;7.414;2023-02-02T05:48:44;7.60;99.90
2543;DHT22;1116;51.502;7.414;2023-02-02T05:51:18;7.50;99.90
2543;DHT22;1116;51.502;7.414;2023-02-02T05:53:53;7.60;99.90
2543;DHT22;1116;51.502;7.414;2023-02-02T05:56:27;7.60;99.90
2543;DHT22;1116;51.502;7.414;2023-02-02T05:58:58;7.70;99.90
2543;DHT22;1116;51.502;7.414;2023-02-02T06:01:34;7.70;99.90
2543;DHT22;1116;51.502;7.414;2023-02-02T06:04:04;7.70;99.90
2543;DHT22;1116;51.502;7.414;2023-02-02T06:06:36;7.70;99.90
2543;DHT22;1116;51.502;7.414;2023-02-02T06:09:10;7.70;99.90
2543;DHT22;1116;51.502;7.414;2023-02-02T06:11:42;7.70;99.90
2543;DHT22;1116;51.502;7.414;2023-02-02T06:14:13;7.60;99.90
2543;DHT22;1116;51.502;7.414;2023-02-02T06:16:44;7.70;99.90
2543;DHT22;1116;51.502;7.414;2023-02-02T06:19:17;7.70;99.90
2543;DHT22;1116;51.502;7.414;2023-02-02T06:21:49;7.70;99.90
2543;DHT22;1116;51.502;7.414;2023-02-02T06:24:25;7.70;99.90
2543;DHT22;1116;51.502;7.414;2023-02-02T06:26:56;7.70;99.90
2543;DHT22;1116;51.502;7.414;2023-02-02T06:29:27;7.70;99.90
2543;DHT22;1116;51.502;7.414;2023-02-02T06:31:58;8.30;99.90
2543;DHT22;1116;51.502;7.414;2023-02-02T06:34:29;7.80;99.90
2543;DHT22;1116;51.502;7.414;2023-02-02T06:36:59;7.70;99.90
2543;DHT22;1116;51.502;7.414;2023-02-02T06:39:35;7.80;99.90
2543;DHT22;1116;51.502;7.414;2023-02-02T06:42:06;7.70;99.90
2543;DHT22;1116;51.502;7.414;2023-02-02T06:44:48;7.80;99.90
2543;DHT22;1116;51.502;7.414;2023-02-02T06:47:22;7.80;99.90
2543;DHT22;1116;51.502;7.414;2023-02-02T06:49:53;7.80;99.90
2543;DHT22;1116;51.502;7.414;2023-02-02T06:52:25;7.80;99.90
2543;DHT22;1116;51.502;7.414;2023-02-02T06:54:58;7.70;99.90
2543;DHT22;1116;51.502;7.414;2023-02-02T06:57:29;7.80;99.90
2543;DHT22;1116;51.502;7.414;2023-02-02T07:00:00;7.70;99.90
2543;DHT22;1116;51.502;7.414;2023-02-02T07:02:31;7.70;99.90
2543;DHT22;1116;51.502;7.414;2023-02-02T07:05:06;7.80;99.90
2543;DHT22;1116;51.502;7.414;2023-02-02T07:07:37;7.70;99.90
2543;DHT22;1116;51.502;7.414;2023-02-02T07:10:11;7.70;99.90
2543;DHT22;1116;51.502;7.414;2023-02-02T07:13:01;7.80;99.90
2543;DHT22;1116;51.502;7.414;2023-02-02T07:15:43;7.80;99.90
2543;DHT22;1116;51.502;7.414;2023-02-02T07:18:17;7.80;99.90
2543;DHT22;1116;51.502;7.414;2023-02-02T07:20:52;7.80;99.90
2543;DHT22;1116;51.502;7.414;2023-02-02T07:23:26;7.80;99.90
2543;DHT22;1116;51.502;7.414;2023-02-02T07:26:05;7.70;99.90
2543;DHT22;1116;51.502;7.414;2023-02-02T07:28:36;8.20;99.90
2543;DHT22;1116;51.502;7.414;2023-02-02T07:31:14;7.80;99.90
2543;DHT22;1116;51.502;7.414;2023-02-02T07:33:46;7.80;99.90
2543;DHT22;1116;51.502;7.414;2023-02-02T07:36:20;7.70;99.90
2543;DHT22;1116;51.502;7.414;2023-02-02T07:38:52;7.80;99.90
2543;DHT22;1116;51.502;7.414;2023-02-02T07:41:27;7.80;99.90
2543;DHT22;1116;51.502;7.414;2023-02-02T07:43:57;7.80;99.90
2543;DHT22;1116;51.502;7.414;2023-02-02T07:46:28;7.80;99.90
2543;DHT22;1116;51.502;7.414;2023-02-02T07:49:00;7.80;99.90
2543;DHT22;1116;51.502;7.414;2023-02-02T07:51:31;7.80;99.90
2543;DHT22;1116;51.502;7.414;2023-02-02T07:54:05;7.90;99.90
2543;DHT22;1116;51.502;7.414;2023-02-02T07:56:39;7.90;99.90
2543;DHT22;1116;51.502;7.414;2023-02-02T07:59:10;7.80;99.90
2543;DHT22;1116;51.502;7.414;2023-02-02T08:01:41;7.90;99.90
2543;DHT22;1116;51.502;7.414;2023-02-02T08:04:19;7.90;99.90
2543;DHT22;1116;51.502;7.414;2023-02-02T08:06:57;7.90;99.90
2543;DHT22;1116;51.502;7.414;2023-02-02T08:09:28;7.90;99.90
2543;DHT22;1116;51.502;7.414;2023-02-02T08:12:02;7.90;99.90
2543;DHT22;1116;51.502;7.414;2023-02-02T08:14:33;7.90;99.90
2543;DHT22;1116;51.502;7.414;2023-02-02T08:17:04;7.90;99.90
2543;DHT22;1116;51.502;7.414;2023-02-02T08:19:34;7.90;99.90
2543;DHT22;1116;51.502;7.414;2023-02-02T08:22:05;7.90;99.90
2543;DHT22;1116;51.502;7.414;2023-02-02T08:24:36;7.90;99.90
2543;DHT22;1116;51.502;7.414;2023-02-02T08:27:12;7.90;99.90
2543;DHT22;1116;51.502;7.414;2023-02-02T08:29:44;8.00;99.90
2543;DHT22;1116;51.502;7.414;2023-02-02T08:32:15;8.00;99.90
2543;DHT22;1116;51.502;7.414;2023-02-02T08:34:47;8.00;99.90
2543;DHT22;1116;51.502;7.414;2023-02-02T08:37:18;8.00;99.90
2543;DHT22;1116;51.502;7.414;2023-02-02T08:39:49;8.30;99.90
2543;DHT22;1116;51.502;7.414;2023-02-02T08:42:25;8.00;99.90
2543;DHT22;1116;51.502;7.414;2023-02-02T08:44:56;8.10;99.90
2543;DHT22;1116;51.502;7.414;2023-02-02T08:47:50;8.00;99.90
2543;DHT22;1116;51.502;7.414;2023-02-02T08:50:38;8.00;99.90
2543;DHT22;1116;51.502;7.414;2023-02-02T08:53:09;8.10;99.90
2543;DHT22;1116;51.502;7.414;2023-02-02T08:55:43;8.00;99.90
2543;DHT22;1116;51.502;7.414;2023-02-02T08:58:16;8.00;99.90
2543;DHT22;1116;51.502;7.414;2023-02-02T09:00:47;8.00;99.90
2543;DHT22;1116;51.502;7.414;2023-02-02T09:03:20;8.00;99.90
2543;DHT22;1116;51.502;7.414;2023-02-02T09:05:50;8.50;99.90
2543;DHT22;1116;51.502;7.414;2023-02-02T09:08:22;8.10;99.90
2543;DHT22;1116;51.502;7.414;2023-02-02T09:10:52;8.00;99.90
2543;DHT22;1116;51.502;7.414;2023-02-02T09:13:26;8.00;99.90
2543;DHT22;1116;51.502;7.414;2023-02-02T09:15:58;8.00;99.90
2543;DHT22;1116;51.502;7.414;2023-02-02T09:18:30;8.00;99.90
2543;DHT22;1116;51.502;7.414;2023-02-02T09:21:05;8.10;99.90
2543;DHT22;1116;51.502;7.414;2023-02-02T09:23:38;8.10;99.90
2543;DHT22;1116;51.502;7.414;2023-02-02T09:26:13;8.10;99.90
2543;DHT22;1116;51.502;7.414;2023-02-02T09:28:51;8.10;99.90
2543;DHT22;1116;51.502;7.414;2023-02-02T09:31:23;8.10;99.90
2543;DHT22;1116;51.502;7.414;2023-02-02T09:34:10;8.10;99.90
2543;DHT22;1116;51.502;7.414;2023-02-02T09:36:44;8.10;99.90
2543;DHT22;1116;51.502;7.414;2023-02-02T09:39:15;8.10;99.90
2543;DHT22;1116;51.502;7.414;2023-02-02T09:45:09;8.10;99.90
2543;DHT22;1116;51.502;7.414;2023-02-02T09:47:51;8.10;99.90
2543;DHT22;1116;51.502;7.414;2023-02-02T09:50:39;8.20;99.90
2543;DHT22;1116;51.502;7.414;2023-02-02T09:55:57;8.10;99.90
2543;DHT22;1116;51.502;7.414;2023-02-02T09:58:32;8.10;99.90
2543;DHT22;1116;51.502;7.414;2023-02-02T10:01:09;8.20;99.90
2543;DHT22;1116;51.502;7.414;2023-02-02T10:03:57;8.20;99.90
2543;DHT22;1116;51.502;7.414;2023-02-02T10:06:34;8.20;99.90
2543;DHT22;1116;51.502;7.414;2023-02-02T10:09:17;8.20;99.90
2543;DHT22;1116;51.502;7.414;2023-02-02T10:11:54;8.20;99.90
2543;DHT22;1116;51.502;7.414;2023-02-02T10:14:31;8.20;99.90
2543;DHT22;1116;51.502;7.414;2023-02-02T10:17:13;8.20;99.90
2543;DHT22;1116;51.502;7.414;2023-02-02T10:19:56;8.20;99.90
2543;DHT22;1116;51.502;7.414;2023-02-02T10:22:32;8.30;99.90
2543;DHT22;1116;51.502;7.414;2023-02-02T10:25:04;8.30;99.90
2543;DHT22;1116;51.502;7.414;2023-02-02T10:27:38;8.30;99.90
2543;DHT22;1116;51.502;7.414;2023-02-02T10:30:17;8.20;99.90
2543;DHT22;1116;51.502;7.414;2023-02-02T10:33:00;8.20;99.90
2543;DHT22;1116;51.502;7.414;2023-02-02T10:35:37;8.20;99.90
2543;DHT22;1116;51.502;7.414;2023-02-02T10:38:19;8.20;99.90
2543;DHT22;1116;51.502;7.414;2023-02-02T10:41:00;8.20;99.90
2543;DHT22;1116;51.502;7.414;2023-02-02T10:44:04;8.10;99.90
2543;DHT22;1116;51.502;7.414;2023-02-02T10:46:39;8.20;99.90
2543;DHT22;1116;51.502;7.414;2023-02-02T10:49:23;8.20;99.90
2543;DHT22;1116;51.502;7.414;2023-02-02T10:52:03;8.20;99.90
2543;DHT22;1116;51.502;7.414;2023-02-02T10:54:52;8.10;99.90
2543;DHT22;1116;51.502;7.414;2023-02-02T10:57:43;8.20;99.90
2543;DHT22;1116;51.502;7.414;2023-02-02T11:00:20;8.10;99.90
2543;DHT22;1116;51.502;7.414;2023-02-02T11:02:52;8.20;99.90
2543;DHT22;1116;51.502;7.414;2023-02-02T11:05:59;8.20;99.90
2543;DHT22;1116;51.502;7.414;2023-02-02T11:08:44;8.20;99.90
2543;DHT22;1116;51.502;7.414;2023-02-02T11:11:30;8.20;99.90
2543;DHT22;1116;51.502;7.414;2023-02-02T11:14:29;8.20;99.90
2543;DHT22;1116;51.502;7.414;2023-02-02T11:17:28;8.20;99.90
2543;DHT22;1116;51.502;7.414;2023-02-02T11:20:00;8.20;99.90
2543;DHT22;1116;51.502;7.414;2023-02-02T11:22:35;8.20;99.90
2543;DHT22;1116;51.502;7.414;2023-02-02T11:25:23;8.30;99.90
2543;DHT22;1116;51.502;7.414;2023-02-02T11:27:57;8.30;99.90
2543;DHT22;1116;51.502;7.414;2023-02-02T11:30:31;8.30;99.90
2543;DHT22;1116;51.502;7.414;2023-02-02T11:33:19;8.30;99.90
2543;DHT22;1116;51.502;7.414;2023-02-02T11:36:16;8.30;99.90
2543;DHT22;1116;51.502;7.414;2023-02-02T11:39:13;8.60;99.90
2543;DHT22;1116;51.502;7.414;2023-02-02T11:41:45;8.30;99.90
2543;DHT22;1116;51.502;7.414;2023-02-02T11:44:21;8.30;99.90
2543;DHT22;1116;51.502;7.414;2023-02-02T11:46:54;8.30;99.90
2543;DHT22;1116;51.502;7.414;2023-02-02T11:49:26;8.40;99.90
2543;DHT22;1116;51.502;7.414;2023-02-02T11:52:01;8.40;99.90
2543;DHT22;1116;51.502;7.414;2023-02-02T11:54:36;8.40;99.90
2543;DHT22;1116;51.502;7.414;2023-02-02T11:57:09;8.40;99.90
2543;DHT22;1116;51.502;7.414;2023-02-02T11:59:41;8.40;99.90
2543;DHT22;1116;51.502;7.414;2023-02-02T12:02:28;8.40;99.90
2543;DHT22;1116;51.502;7.414;2023-02-02T12:05:32;8.40;99.90
2543;DHT22;1116;51.502;7.414;2023-02-02T12:08:03;8.40;99.90
2543;DHT22;1116;51.502;7.414;2023-02-02T12:10:43;8.40;99.90
2543;DHT22;1116;51.502;7.414;2023-02-02T12:13:35;8.80;99.90
2543;DHT22;1116;51.502;7.414;2023-02-02T12:16:21;8.40;99.90
2543;DHT22;1116;51.502;7.414;2023-02-02T12:19:02;8.50;99.90
2543;DHT22;1116;51.502;7.414;2023-02-02T12:21:44;8.50;99.90
2543;DHT22;1116;51.502;7.414;2023-02-02T12:24:27;8.50;99.90
2543;DHT22;1116;51.502;7.414;2023-02-02T12:27:11;8.50;99.90
2543;DHT22;1116;51.502;7.414;2023-02-02T12:30:11;8.40;99.90
2543;DHT22;1116;51.502;7.414;2023-02-02T12:32:57;8.50;99.90
2543;DHT22;1116;51.502;7.414;2023-02-02T12:35:47;8.40;99.90
2543;DHT22;1116;51.502;7.414;2023-02-02T12:38:30;8.40;99.90
2543;DHT22;1116;51.502;7.414;2023-02-02T12:41:24;8.40;99.90
2543;DHT22;1116;51.502;7.414;2023-02-02T12:44:08;8.40;99.90
2543;DHT22;1116;51.502;7.414;2023-02-02T12:46:49;8.40;99.90
2543;DHT22;1116;51.502;7.414;2023-02-02T12:49:51;8.40;99.90
2543;DHT22;1116;51.502;7.414;2023-02-02T12:52:39;8.30;99.90
2543;DHT22;1116;51.502;7.414;2023-02-02T12:55:22;8.40;99.90
2543;DHT22;1116;51.502;7.414;2023-02-02T12:58:00;8.40;99.90
2543;DHT22;1116;51.502;7.414;2023-02-02T13:04:15;8.40;99.90
2543;DHT22;1116;51.502;7.414;2023-02-02T13:07:18;8.40;99.90
2543;DHT22;1116;51.502;7.414;2023-02-02T13:09:59;8.40;99.90
2543;DHT22;1116;51.502;7.414;2023-02-02T13:12:41;8.40;99.90
2543;DHT22;1116;51.502;7.414;2023-02-02T13:15:16;8.40;99.90
2543;DHT22;1116;51.502;7.414;2023-02-02T13:17:53;8.40;99.90
2543;DHT22;1116;51.502;7.414;2023-02-02T13:20:36;8.40;99.90
2543;DHT22;1116;51.502;7.414;2023-02-02T13:23:11;8.40;99.90
2543;DHT22;1116;51.502;7.414;2023-02-02T13:25:46;8.40;99.90
2543;DHT22;1116;51.502;7.414;2023-02-02T13:28:35;8.40;99.90
2543;DHT22;1116;51.502;7.414;2023-02-02T13:31:13;8.40;99.90
2543;DHT22;1116;51.502;7.414;2023-02-02T13:33:50;8.40;99.90
2543;DHT22;1116;51.502;7.414;2023-02-02T13:36:28;8.40;99.90
2543;DHT22;1116;51.502;7.414;2023-02-02T13:39:13;8.50;99.90
2543;DHT22;1116;51.502;7.414;2023-02-02T13:41:46;8.50;99.90
2543;DHT22;1116;51.502;7.414;2023-02-02T13:44:26;8.50;99.90
2543;DHT22;1116;51.502;7.414;2023-02-02T13:47:04;8.50;99.90
2543;DHT22;1116;51.502;7.414;2023-02-02T13:49:41;8.60;99.90
2543;DHT22;1116;51.502;7.414;2023-02-02T13:52:40;8.60;99.90
2543;DHT22;1116;51.502;7.414;2023-02-02T13:55:22;8.60;99.90
2543;DHT22;1116;51.502;7.414;2023-02-02T14:01:04;8.60;99.90
2543;DHT22;1116;51.502;7.414;2023-02-02T14:03:39;8.60;99.90
2543;DHT22;1116;51.502;7.414;2023-02-02T14:06:12;8.50;99.90
2543;DHT22;1116;51.502;7.414;2023-02-02T14:09:03;8.50;99.90
2543;DHT22;1116;51.502;7.414;2023-02-02T14:11:38;8.50;99.90
2543;DHT22;1116;51.502;7.414;2023-02-02T14:14:15;8.50;99.90
2543;DHT22;1116;51.502;7.414;2023-02-02T14:17:05;8.50;99.90
2543;DHT22;1116;51.502;7.414;2023-02-02T14:19:51;8.40;99.90
2543;DHT22;1116;51.502;7.414;2023-02-02T14:22:42;8.40;99.90
2543;DHT22;1116;51.502;7.414;2023-02-02T14:25:51;8.50;99.90
2543;DHT22;1116;51.502;7.414;2023-02-02T14:28:54;8.50;99.90
2543;DHT22;1116;51.502;7.414;2023-02-02T14:31:40;8.60;99.90
2543;DHT22;1116;51.502;7.414;2023-02-02T14:34:28;8.60;99.90
2543;DHT22;1116;51.502;7.414;2023-02-02T14:37:38;8.70;99.90
2543;DHT22;1116;51.502;7.414;2023-02-02T14:40:25;8.70;99.90
2543;DHT22;1116;51.502;7.414;2023-02-02T14:43:10;8.60;99.90
2543;DHT22;1116;51.502;7.414;2023-02-02T14:46:23;8.60;99.90
2543;DHT22;1116;51.502;7.414;2023-02-02T14:49:17;8.50;99.90
2543;DHT22;1116;51.502;7.414;2023-02-02T14:51:58;8.50;99.90
2543;DHT22;1116;51.502;7.414;2023-02-02T14:54:38;8.60;99.90
2543;DHT22;1116;51.502;7.414;2023-02-02T14:57:24;8.50;99.90
2543;DHT22;1116;51.502;7.414;2023-02-02T15:00:00;8.50;99.90
2543;DHT22;1116;51.502;7.414;2023-02-02T15:02:32;8.50;99.90
2543;DHT22;1116;51.502;7.414;2023-02-02T15:05:34;8.50;99.90
2543;DHT22;1116;51.502;7.414;2023-02-02T15:08:11;8.50;99.90
2543;DHT22;1116;51.502;7.414;2023-02-02T15:13:58;8.60;99.90
2543;DHT22;1116;51.502;7.414;2023-02-02T15:16:40;8.60;99.90
2543;DHT22;1116;51.502;7.414;2023-02-02T15:19:21;8.60;99.90
2543;DHT22;1116;51.502;7.414;2023-02-02T15:21:55;8.50;99.90
2543;DHT22;1116;51.502;7.414;2023-02-02T15:24:28;8.50;99.90
2543;DHT22;1116;51.502;7.414;2023-02-02T15:27:00;8.50;99.90
2543;DHT22;1116;51.502;7.414;2023-02-02T15:29:53;8.50;99.90
2543;DHT22;1116;51.502;7.414;2023-02-02T15:32:29;8.50;99.90
2543;DHT22;1116;51.502;7.414;2023-02-02T15:35:03;8.60;99.90
2543;DHT22;1116;51.502;7.414;2023-02-02T15:37:39;8.60;99.90
2543;DHT22;1116;51.502;7.414;2023-02-02T15:40:15;8.60;99.90
2543;DHT22;1116;51.502;7.414;2023-02-02T15:42:53;8.60;99.90
2543;DHT22;1116;51.502;7.414;2023-02-02T15:45:35;8.60;99.90
2543;DHT22;1116;51.502;7.414;2023-02-02T15:48:21;8.70;99.90
2543;DHT22;1116;51.502;7.414;2023-02-02T15:50:53;8.50;99.90
2543;DHT22;1116;51.502;7.414;2023-02-02T15:53:27;8.60;99.90
2543;DHT22;1116;51.502;7.414;2023-02-02T15:55:58;8.60;99.90
2543;DHT22;1116;51.502;7.414;2023-02-02T15:58:30;8.50;99.90
2543;DHT22;1116;51.502;7.414;2023-02-02T16:01:12;8.50;99.90
2543;DHT22;1116;51.502;7.414;2023-02-02T16:03:51;8.60;99.90
2543;DHT22;1116;51.502;7.414;2023-02-02T16:06:28;8.60;99.90
2543;DHT22;1116;51.502;7.414;2023-02-02T16:09:05;8.60;99.90
2543;DHT22;1116;51.502;7.414;2023-02-02T16:11:40;8.50;99.90
2543;DHT22;1116;51.502;7.414;2023-02-02T16:14:13;8.50;99.90
2543;DHT22;1116;51.502;7.414;2023-02-02T16:16:48;8.50;99.90
2543;DHT22;1116;51.502;7.414;2023-02-02T16:19:42;8.40;99.90
2543;DHT22;1116;51.502;7.414;2023-02-02T16:22:15;8.50;99.90
2543;DHT22;1116;51.502;7.414;2023-02-02T16:24:51;8.50;99.90
2543;DHT22;1116;51.502;7.414;2023-02-02T16:27:25;8.50;99.90
2543;DHT22;1116;51.502;7.414;2023-02-02T16:30:00;8.50;99.90
2543;DHT22;1116;51.502;7.414;2023-02-02T16:32:32;8.50;99.90
2543;DHT22;1116;51.502;7.414;2023-02-02T16:35:29;8.50;99.90
2543;DHT22;1116;51.502;7.414;2023-02-02T16:38:20;8.50;99.90
2543;DHT22;1116;51.502;7.414;2023-02-02T16:41:06;8.50;99.90
2543;DHT22;1116;51.502;7.414;2023-02-02T16:43:38;8.40;99.90
2543;DHT22;1116;51.502;7.414;2023-02-02T16:46:10;8.40;99.90
2543;DHT22;1116;51.502;7.414;2023-02-02T16:48:55;8.40;99.90
2543;DHT22;1116;51.502;7.414;2023-02-02T16:51:32;8.40;99.90
2543;DHT22;1116;51.502;7.414;2023-02-02T16:54:16;8.40;99.90
2543;DHT22;1116;51.502;7.414;2023-02-02T16:56:49;8.50;99.90
2543;DHT22;1116;51.502;7.414;2023-02-02T16:59:23;8.50;99.90
2543;DHT22;1116;51.502;7.414;2023-02-02T17:01:57;8.50;99.90
2543;DHT22;1116;51.502;7.414;2023-02-02T17:04:31;8.50;99.90
2543;DHT22;1116;51.502;7.414;2023-02-02T17:07:09;8.50;99.90
2543;DHT22;1116;51.502;7.414;2023-02-02T17:09:44;8.50;99.90
2543;DHT22;1116;51.502;7.414;2023-02-02T17:12:24;8.50;99.90
2543;DHT22;1116;51.502;7.414;2023-02-02T17:15:24;8.50;99.90
2543;DHT22;1116;51.502;7.414;2023-02-02T17:18:01;8.50;99.90
2543;DHT22;1116;51.502;7.414;2023-02-02T17:20:32;8.40;99.90
2543;DHT22;1116;51.502;7.414;2023-02-02T17:23:06;8.40;99.90
2543;DHT22;1116;51.502;7.414;2023-02-02T17:25:40;8.40;99.90
2543;DHT22;1116;51.502;7.414;2023-02-02T17:28:14;8.40;99.90
2543;DHT22;1116;51.502;7.414;2023-02-02T17:30:56;8.40;99.90
2543;DHT22;1116;51.502;7.414;2023-02-02T17:33:33;8.40;99.90
2543;DHT22;1116;51.502;7.414;2023-02-02T17:36:05;8.40;99.90
2543;DHT22;1116;51.502;7.414;2023-02-02T17:38:39;8.40;99.90
2543;DHT22;1116;51.502;7.414;2023-02-02T17:41:11;8.40;99.90
2543;DHT22;1116;51.502;7.414;2023-02-02T17:43:44;8.40;99.90
2543;DHT22;1116;51.502;7.414;2023-02-02T17:46:17;8.40;99.90
2543;DHT22;1116;51.502;7.414;2023-02-02T17:48:48;8.50;99.90